sensor_id;sensor_type;location;lat;lon;timestamp;P1;durP1;ratioP1;P2;durP2;ratioP2
66585;SDS011;53444;45.822;16.092;2022-10-20T00:01:32;6.47;;;4.00;;
66585;SDS011;53444;45.822;16.092;2022-10-20T00:03:59;6.28;;;3.88;;
66585;SDS011;53444;45.822;16.092;2022-10-20T00:06:26;7.82;;;4.25;;
66585;SDS011;53444;45.822;16.092;2022-10-20T00:08:55;9.65;;;4.40;;
66585;SDS011;53444;45.822;16.092;2022-10-20T00:11:24;7.82;;;3.83;;
66585;SDS011;53444;45.822;16.092;2022-10-20T00:13:52;7.50;;;4.23;;
66585;SDS011;53444;45.822;16.092;2022-10-20T00:16:20;6.40;;;3.95;;
66585;SDS011;53444;45.822;16.092;2022-10-20T00:18:49;5.80;;;3.90;;
66585;SDS011;53444;45.822;16.092;2022-10-20T00:21:17;8.73;;;3.45;;
66585;SDS011;53444;45.822;16.092;2022-10-20T00:23:44;7.15;;;4.50;;
66585;SDS011;53444;45.822;16.092;2022-10-20T00:26:12;6.33;;;4.10;;
66585;SDS011;53444;45.822;16.092;2022-10-20T00:28:41;5.55;;;3.42;;
66585;SDS011;53444;45.822;16.092;2022-10-20T00:31:08;5.15;;;3.67;;
66585;SDS011;53444;45.822;16.092;2022-10-20T00:33:35;5.45;;;4.03;;
66585;SDS011;53444;45.822;16.092;2022-10-20T00:36:04;5.38;;;3.40;;
66585;SDS011;53444;45.822;16.092;2022-10-20T00:38:32;6.13;;;3.57;;
66585;SDS011;53444;45.822;16.092;2022-10-20T00:41:00;5.30;;;3.35;;
66585;SDS011;53444;45.822;16.092;2022-10-20T00:43:39;4.63;;;3.80;;
66585;SDS011;53444;45.822;16.092;2022-10-20T00:46:08;8.27;;;3.25;;
66585;SDS011;53444;45.822;16.092;2022-10-20T00:48:36;4.88;;;3.55;;
66585;SDS011;53444;45.822;16.092;2022-10-20T00:51:05;5.37;;;3.10;;
66585;SDS011;53444;45.822;16.092;2022-10-20T00:53:32;5.20;;;3.20;;
66585;SDS011;53444;45.822;16.092;2022-10-20T00:55:59;6.68;;;3.78;;
66585;SDS011;53444;45.822;16.092;2022-10-20T00:58:26;5.88;;;3.03;;
66585;SDS011;53444;45.822;16.092;2022-10-20T01:00:54;9.10;;;3.60;;
66585;SDS011;53444;45.822;16.092;2022-10-20T01:03:23;6.30;;;3.30;;
66585;SDS011;53444;45.822;16.092;2022-10-20T01:05:52;4.68;;;3.20;;
66585;SDS011;53444;45.822;16.092;2022-10-20T01:08:21;4.47;;;3.15;;
66585;SDS011;53444;45.822;16.092;2022-10-20T01:10:49;5.95;;;2.95;;
66585;SDS011;53444;45.822;16.092;2022-10-20T01:13:23;7.13;;;3.38;;
66585;SDS011;53444;45.822;16.092;2022-10-20T01:15:57;5.30;;;3.00;;
66585;SDS011;53444;45.822;16.092;2022-10-20T01:18:29;5.13;;;3.20;;
66585;SDS011;53444;45.822;16.092;2022-10-20T01:21:10;5.28;;;3.30;;
66585;SDS011;53444;45.822;16.092;2022-10-20T01:23:55;4.38;;;2.75;;
66585;SDS011;53444;45.822;16.092;2022-10-20T01:26:54;4.45;;;2.95;;
66585;SDS011;53444;45.822;16.092;2022-10-20T01:29:44;4.70;;;3.03;;
66585;SDS011;53444;45.822;16.092;2022-10-20T01:32:17;4.13;;;2.75;;
66585;SDS011;53444;45.822;16.092;2022-10-20T01:34:48;6.75;;;3.38;;
66585;SDS011;53444;45.822;16.092;2022-10-20T01:37:24;4.78;;;3.05;;
66585;SDS011;53444;45.822;16.092;2022-10-20T01:39:56;6.00;;;2.88;;
66585;SDS011;53444;45.822;16.092;2022-10-20T01:42:28;6.33;;;3.00;;
66585;SDS011;53444;45.822;16.092;2022-10-20T01:44:55;5.60;;;3.20;;
66585;SDS011;53444;45.822;16.092;2022-10-20T01:47:27;5.32;;;3.60;;
66585;SDS011;53444;45.822;16.092;2022-10-20T01:49:55;3.72;;;2.63;;
66585;SDS011;53444;45.822;16.092;2022-10-20T01:52:23;5.13;;;3.20;;
66585;SDS011;53444;45.822;16.092;2022-10-20T01:54:50;5.33;;;2.90;;
66585;SDS011;53444;45.822;16.092;2022-10-20T01:57:23;7.32;;;3.17;;
66585;SDS011;53444;45.822;16.092;2022-10-20T02:00:04;3.88;;;2.75;;
66585;SDS011;53444;45.822;16.092;2022-10-20T02:02:40;5.47;;;3.05;;
66585;SDS011;53444;45.822;16.092;2022-10-20T02:05:27;4.20;;;3.08;;
66585;SDS011;53444;45.822;16.092;2022-10-20T02:08:02;4.70;;;2.70;;
66585;SDS011;53444;45.822;16.092;2022-10-20T02:10:37;6.60;;;3.30;;
66585;SDS011;53444;45.822;16.092;2022-10-20T02:13:11;6.60;;;3.60;;
66585;SDS011;53444;45.822;16.092;2022-10-20T02:15:39;5.38;;;3.08;;
66585;SDS011;53444;45.822;16.092;2022-10-20T02:18:09;5.93;;;3.67;;
66585;SDS011;53444;45.822;16.092;2022-10-20T02:20:43;5.70;;;3.07;;
66585;SDS011;53444;45.822;16.092;2022-10-20T02:23:12;5.97;;;3.25;;
66585;SDS011;53444;45.822;16.092;2022-10-20T02:25:39;6.82;;;3.65;;
66585;SDS011;53444;45.822;16.092;2022-10-20T02:28:07;4.60;;;3.28;;
66585;SDS011;53444;45.822;16.092;2022-10-20T02:30:38;6.70;;;3.42;;
66585;SDS011;53444;45.822;16.092;2022-10-20T02:33:06;7.30;;;3.10;;
66585;SDS011;53444;45.822;16.092;2022-10-20T02:35:33;6.78;;;3.30;;
66585;SDS011;53444;45.822;16.092;2022-10-20T02:38:00;5.97;;;3.90;;
66585;SDS011;53444;45.822;16.092;2022-10-20T02:40:28;5.03;;;3.25;;
66585;SDS011;53444;45.822;16.092;2022-10-20T02:42:55;10.60;;;3.80;;
66585;SDS011;53444;45.822;16.092;2022-10-20T02:45:22;7.03;;;4.03;;
66585;SDS011;53444;45.822;16.092;2022-10-20T02:47:50;6.70;;;3.75;;
66585;SDS011;53444;45.822;16.092;2022-10-20T02:50:16;4.95;;;3.50;;
66585;SDS011;53444;45.822;16.092;2022-10-20T02:52:43;5.18;;;3.38;;
66585;SDS011;53444;45.822;16.092;2022-10-20T02:55:10;5.57;;;2.85;;
66585;SDS011;53444;45.822;16.092;2022-10-20T02:57:36;6.77;;;3.13;;
66585;SDS011;53444;45.822;16.092;2022-10-20T03:00:03;5.00;;;3.13;;
66585;SDS011;53444;45.822;16.092;2022-10-20T03:02:31;4.82;;;3.10;;
66585;SDS011;53444;45.822;16.092;2022-10-20T03:04:59;6.80;;;3.60;;
66585;SDS011;53444;45.822;16.092;2022-10-20T03:07:26;9.05;;;3.38;;
66585;SDS011;53444;45.822;16.092;2022-10-20T03:09:52;4.63;;;3.10;;
66585;SDS011;53444;45.822;16.092;2022-10-20T03:12:19;5.82;;;2.88;;
66585;SDS011;53444;45.822;16.092;2022-10-20T03:14:46;4.68;;;2.83;;
66585;SDS011;53444;45.822;16.092;2022-10-20T03:17:12;3.92;;;2.53;;
66585;SDS011;53444;45.822;16.092;2022-10-20T03:19:39;5.22;;;3.25;;
66585;SDS011;53444;45.822;16.092;2022-10-20T03:22:07;4.20;;;2.60;;
66585;SDS011;53444;45.822;16.092;2022-10-20T03:24:34;4.90;;;2.92;;
66585;SDS011;53444;45.822;16.092;2022-10-20T03:27:00;4.65;;;2.78;;
66585;SDS011;53444;45.822;16.092;2022-10-20T03:29:27;6.20;;;3.25;;
66585;SDS011;53444;45.822;16.092;2022-10-20T03:31:54;4.63;;;3.17;;
66585;SDS011;53444;45.822;16.092;2022-10-20T03:34:20;5.40;;;2.80;;
66585;SDS011;53444;45.822;16.092;2022-10-20T03:36:47;4.65;;;2.63;;
66585;SDS011;53444;45.822;16.092;2022-10-20T03:39:15;3.55;;;2.65;;
66585;SDS011;53444;45.822;16.092;2022-10-20T03:41:42;3.28;;;2.40;;
66585;SDS011;53444;45.822;16.092;2022-10-20T03:44:08;4.78;;;2.50;;
66585;SDS011;53444;45.822;16.092;2022-10-20T03:46:35;5.33;;;2.53;;
66585;SDS011;53444;45.822;16.092;2022-10-20T03:49:02;5.90;;;2.90;;
66585;SDS011;53444;45.822;16.092;2022-10-20T03:51:29;5.07;;;2.80;;
66585;SDS011;53444;45.822;16.092;2022-10-20T03:53:55;5.50;;;2.50;;
66585;SDS011;53444;45.822;16.092;2022-10-20T03:56:23;5.97;;;2.97;;
66585;SDS011;53444;45.822;16.092;2022-10-20T03:58:50;5.43;;;2.83;;
66585;SDS011;53444;45.822;16.092;2022-10-20T04:01:17;3.95;;;2.78;;
66585;SDS011;53444;45.822;16.092;2022-10-20T04:03:46;4.90;;;2.50;;
66585;SDS011;53444;45.822;16.092;2022-10-20T04:06:13;4.97;;;3.05;;
66585;SDS011;53444;45.822;16.092;2022-10-20T04:08:40;4.95;;;3.10;;
66585;SDS011;53444;45.822;16.092;2022-10-20T04:11:07;5.17;;;2.60;;
66585;SDS011;53444;45.822;16.092;2022-10-20T04:13:35;3.30;;;2.33;;
66585;SDS011;53444;45.822;16.092;2022-10-20T04:16:04;11.93;;;3.05;;
66585;SDS011;53444;45.822;16.092;2022-10-20T04:18:31;3.45;;;2.50;;
66585;SDS011;53444;45.822;16.092;2022-10-20T04:20:58;3.47;;;2.85;;
66585;SDS011;53444;45.822;16.092;2022-10-20T04:23:25;5.07;;;2.93;;
66585;SDS011;53444;45.822;16.092;2022-10-20T04:25:52;4.70;;;2.28;;
66585;SDS011;53444;45.822;16.092;2022-10-20T04:28:18;6.00;;;2.80;;
66585;SDS011;53444;45.822;16.092;2022-10-20T04:30:47;4.88;;;2.35;;
66585;SDS011;53444;45.822;16.092;2022-10-20T04:33:14;3.53;;;2.78;;
66585;SDS011;53444;45.822;16.092;2022-10-20T04:35:41;2.63;;;1.87;;
66585;SDS011;53444;45.822;16.092;2022-10-20T04:38:11;3.55;;;2.42;;
66585;SDS011;53444;45.822;16.092;2022-10-20T04:40:38;4.93;;;2.63;;
66585;SDS011;53444;45.822;16.092;2022-10-20T04:43:04;4.70;;;2.97;;
66585;SDS011;53444;45.822;16.092;2022-10-20T04:45:31;4.68;;;3.33;;
66585;SDS011;53444;45.822;16.092;2022-10-20T04:47:59;3.77;;;2.37;;
66585;SDS011;53444;45.822;16.092;2022-10-20T04:50:26;3.78;;;2.72;;
66585;SDS011;53444;45.822;16.092;2022-10-20T04:52:52;5.28;;;2.75;;
66585;SDS011;53444;45.822;16.092;2022-10-20T04:55:19;7.05;;;2.40;;
66585;SDS011;53444;45.822;16.092;2022-10-20T04:57:46;4.35;;;2.70;;
66585;SDS011;53444;45.822;16.092;2022-10-20T05:00:13;5.53;;;2.20;;
66585;SDS011;53444;45.822;16.092;2022-10-20T05:02:40;4.32;;;2.50;;
66585;SDS011;53444;45.822;16.092;2022-10-20T05:05:08;4.57;;;2.92;;
66585;SDS011;53444;45.822;16.092;2022-10-20T05:07:35;3.58;;;2.55;;
66585;SDS011;53444;45.822;16.092;2022-10-20T05:10:02;4.25;;;2.85;;
66585;SDS011;53444;45.822;16.092;2022-10-20T05:12:29;5.13;;;2.80;;
66585;SDS011;53444;45.822;16.092;2022-10-20T05:14:56;6.32;;;2.67;;
66585;SDS011;53444;45.822;16.092;2022-10-20T05:17:22;3.25;;;2.55;;
66585;SDS011;53444;45.822;16.092;2022-10-20T05:19:49;5.28;;;2.15;;
66585;SDS011;53444;45.822;16.092;2022-10-20T05:22:17;4.40;;;3.05;;
66585;SDS011;53444;45.822;16.092;2022-10-20T05:24:44;4.10;;;2.73;;
66585;SDS011;53444;45.822;16.092;2022-10-20T05:27:10;6.40;;;2.92;;
66585;SDS011;53444;45.822;16.092;2022-10-20T05:29:37;5.00;;;3.40;;
66585;SDS011;53444;45.822;16.092;2022-10-20T05:32:04;10.23;;;4.85;;
66585;SDS011;53444;45.822;16.092;2022-10-20T05:34:30;6.78;;;4.30;;
66585;SDS011;53444;45.822;16.092;2022-10-20T05:36:57;5.80;;;3.33;;
66585;SDS011;53444;45.822;16.092;2022-10-20T05:39:25;4.63;;;2.50;;
66585;SDS011;53444;45.822;16.092;2022-10-20T05:41:52;4.22;;;2.72;;
66585;SDS011;53444;45.822;16.092;2022-10-20T05:44:18;4.35;;;2.63;;
66585;SDS011;53444;45.822;16.092;2022-10-20T05:46:45;7.78;;;3.60;;
66585;SDS011;53444;45.822;16.092;2022-10-20T05:49:13;3.33;;;2.53;;
66585;SDS011;53444;45.822;16.092;2022-10-20T05:51:41;4.97;;;2.53;;
66585;SDS011;53444;45.822;16.092;2022-10-20T05:54:09;4.82;;;3.22;;
66585;SDS011;53444;45.822;16.092;2022-10-20T05:56:38;5.28;;;3.47;;
66585;SDS011;53444;45.822;16.092;2022-10-20T05:59:05;6.60;;;2.75;;
66585;SDS011;53444;45.822;16.092;2022-10-20T06:01:32;4.47;;;2.67;;
66585;SDS011;53444;45.822;16.092;2022-10-20T06:04:11;3.65;;;2.50;;
66585;SDS011;53444;45.822;16.092;2022-10-20T06:06:38;6.03;;;2.85;;
66585;SDS011;53444;45.822;16.092;2022-10-20T06:09:06;7.00;;;2.90;;
66585;SDS011;53444;45.822;16.092;2022-10-20T06:11:34;5.10;;;2.80;;
66585;SDS011;53444;45.822;16.092;2022-10-20T06:14:03;4.00;;;2.73;;
66585;SDS011;53444;45.822;16.092;2022-10-20T06:16:29;6.13;;;3.00;;
66585;SDS011;53444;45.822;16.092;2022-10-20T06:18:57;5.07;;;3.17;;
66585;SDS011;53444;45.822;16.092;2022-10-20T06:21:24;5.47;;;3.72;;
66585;SDS011;53444;45.822;16.092;2022-10-20T06:23:52;8.70;;;3.63;;
66585;SDS011;53444;45.822;16.092;2022-10-20T06:26:20;5.97;;;4.00;;
66585;SDS011;53444;45.822;16.092;2022-10-20T06:28:49;6.25;;;4.28;;
66585;SDS011;53444;45.822;16.092;2022-10-20T06:31:20;6.55;;;3.60;;
66585;SDS011;53444;45.822;16.092;2022-10-20T06:33:48;5.75;;;3.50;;
66585;SDS011;53444;45.822;16.092;2022-10-20T06:36:15;4.55;;;3.60;;
66585;SDS011;53444;45.822;16.092;2022-10-20T06:38:43;5.47;;;3.00;;
66585;SDS011;53444;45.822;16.092;2022-10-20T06:41:12;3.83;;;2.80;;
66585;SDS011;53444;45.822;16.092;2022-10-20T06:43:40;7.82;;;2.80;;
66585;SDS011;53444;45.822;16.092;2022-10-20T06:46:07;5.82;;;2.33;;
66585;SDS011;53444;45.822;16.092;2022-10-20T06:48:37;3.80;;;2.40;;
66585;SDS011;53444;45.822;16.092;2022-10-20T06:51:06;6.27;;;3.27;;
66585;SDS011;53444;45.822;16.092;2022-10-20T06:53:35;4.80;;;2.90;;
66585;SDS011;53444;45.822;16.092;2022-10-20T06:56:03;8.18;;;4.10;;
66585;SDS011;53444;45.822;16.092;2022-10-20T06:58:32;8.70;;;3.67;;
66585;SDS011;53444;45.822;16.092;2022-10-20T07:01:00;8.18;;;3.25;;
66585;SDS011;53444;45.822;16.092;2022-10-20T07:03:28;8.27;;;2.30;;
66585;SDS011;53444;45.822;16.092;2022-10-20T07:05:57;15.57;;;2.70;;
66585;SDS011;53444;45.822;16.092;2022-10-20T07:08:26;4.10;;;2.75;;
66585;SDS011;53444;45.822;16.092;2022-10-20T07:10:57;5.03;;;2.55;;
66585;SDS011;53444;45.822;16.092;2022-10-20T07:13:25;5.22;;;2.92;;
66585;SDS011;53444;45.822;16.092;2022-10-20T07:15:53;4.43;;;3.10;;
66585;SDS011;53444;45.822;16.092;2022-10-20T07:18:20;4.70;;;2.65;;
66585;SDS011;53444;45.822;16.092;2022-10-20T07:20:47;6.50;;;3.15;;
66585;SDS011;53444;45.822;16.092;2022-10-20T07:23:15;4.70;;;2.78;;
66585;SDS011;53444;45.822;16.092;2022-10-20T07:25:42;4.30;;;2.92;;
66585;SDS011;53444;45.822;16.092;2022-10-20T07:28:09;5.10;;;2.30;;
66585;SDS011;53444;45.822;16.092;2022-10-20T07:30:36;3.97;;;2.00;;
66585;SDS011;53444;45.822;16.092;2022-10-20T07:33:04;4.22;;;2.00;;
66585;SDS011;53444;45.822;16.092;2022-10-20T07:35:31;2.78;;;1.98;;
66585;SDS011;53444;45.822;16.092;2022-10-20T07:37:58;3.00;;;1.70;;
66585;SDS011;53444;45.822;16.092;2022-10-20T07:40:26;3.90;;;2.00;;
66585;SDS011;53444;45.822;16.092;2022-10-20T07:42:53;2.83;;;1.75;;
66585;SDS011;53444;45.822;16.092;2022-10-20T07:45:20;3.00;;;2.13;;
66585;SDS011;53444;45.822;16.092;2022-10-20T07:47:46;2.78;;;1.90;;
66585;SDS011;53444;45.822;16.092;2022-10-20T07:50:13;5.35;;;2.10;;
66585;SDS011;53444;45.822;16.092;2022-10-20T07:52:40;3.10;;;1.50;;
66585;SDS011;53444;45.822;16.092;2022-10-20T07:55:07;4.07;;;2.08;;
66585;SDS011;53444;45.822;16.092;2022-10-20T07:57:35;2.28;;;1.85;;
66585;SDS011;53444;45.822;16.092;2022-10-20T08:00:02;2.00;;;1.38;;
66585;SDS011;53444;45.822;16.092;2022-10-20T08:02:29;2.70;;;1.77;;
66585;SDS011;53444;45.822;16.092;2022-10-20T08:04:56;4.73;;;1.67;;
66585;SDS011;53444;45.822;16.092;2022-10-20T08:07:23;3.17;;;1.42;;
66585;SDS011;53444;45.822;16.092;2022-10-20T08:09:49;3.85;;;1.85;;
66585;SDS011;53444;45.822;16.092;2022-10-20T08:12:16;1.95;;;1.65;;
66585;SDS011;53444;45.822;16.092;2022-10-20T08:14:44;3.53;;;1.98;;
66585;SDS011;53444;45.822;16.092;2022-10-20T08:17:10;2.90;;;1.70;;
66585;SDS011;53444;45.822;16.092;2022-10-20T08:19:37;3.45;;;1.58;;
66585;SDS011;53444;45.822;16.092;2022-10-20T08:22:04;4.60;;;1.98;;
66585;SDS011;53444;45.822;16.092;2022-10-20T08:24:30;3.72;;;1.88;;
66585;SDS011;53444;45.822;16.092;2022-10-20T08:26:57;3.75;;;1.90;;
66585;SDS011;53444;45.822;16.092;2022-10-20T08:29:24;3.53;;;1.77;;
66585;SDS011;53444;45.822;16.092;2022-10-20T08:31:52;2.88;;;1.58;;
66585;SDS011;53444;45.822;16.092;2022-10-20T08:34:18;2.58;;;1.77;;
66585;SDS011;53444;45.822;16.092;2022-10-20T08:36:45;2.95;;;1.80;;
66585;SDS011;53444;45.822;16.092;2022-10-20T08:39:12;2.28;;;1.63;;
66585;SDS011;53444;45.822;16.092;2022-10-20T08:41:40;4.57;;;1.73;;
66585;SDS011;53444;45.822;16.092;2022-10-20T08:44:10;2.10;;;1.48;;
66585;SDS011;53444;45.822;16.092;2022-10-20T08:46:41;3.00;;;1.50;;
66585;SDS011;53444;45.822;16.092;2022-10-20T08:49:11;2.53;;;2.00;;
66585;SDS011;53444;45.822;16.092;2022-10-20T08:51:43;6.90;;;3.00;;
66585;SDS011;53444;45.822;16.092;2022-10-20T08:54:10;6.13;;;2.77;;
66585;SDS011;53444;45.822;16.092;2022-10-20T08:56:39;2.70;;;1.90;;
66585;SDS011;53444;45.822;16.092;2022-10-20T08:59:14;3.33;;;1.85;;
66585;SDS011;53444;45.822;16.092;2022-10-20T09:01:51;3.13;;;1.60;;
66585;SDS011;53444;45.822;16.092;2022-10-20T09:04:21;3.63;;;2.28;;
66585;SDS011;53444;45.822;16.092;2022-10-20T09:06:51;2.73;;;1.73;;
66585;SDS011;53444;45.822;16.092;2022-10-20T09:09:21;3.85;;;1.83;;
66585;SDS011;53444;45.822;16.092;2022-10-20T09:11:49;2.65;;;2.10;;
66585;SDS011;53444;45.822;16.092;2022-10-20T09:14:17;4.05;;;2.67;;
66585;SDS011;53444;45.822;16.092;2022-10-20T09:16:45;3.03;;;2.13;;
66585;SDS011;53444;45.822;16.092;2022-10-20T09:19:14;3.93;;;1.73;;
66585;SDS011;53444;45.822;16.092;2022-10-20T09:21:44;4.93;;;2.28;;
66585;SDS011;53444;45.822;16.092;2022-10-20T09:24:11;3.33;;;2.53;;
66585;SDS011;53444;45.822;16.092;2022-10-20T09:26:40;4.75;;;1.90;;
66585;SDS011;53444;45.822;16.092;2022-10-20T09:29:10;3.50;;;2.60;;
66585;SDS011;53444;45.822;16.092;2022-10-20T09:31:39;3.80;;;2.37;;
66585;SDS011;53444;45.822;16.092;2022-10-20T09:34:19;3.08;;;2.30;;
66585;SDS011;53444;45.822;16.092;2022-10-20T09:36:48;2.75;;;1.67;;
66585;SDS011;53444;45.822;16.092;2022-10-20T09:39:17;3.10;;;2.00;;
66585;SDS011;53444;45.822;16.092;2022-10-20T09:41:46;3.53;;;2.17;;
66585;SDS011;53444;45.822;16.092;2022-10-20T09:44:15;3.97;;;2.17;;
66585;SDS011;53444;45.822;16.092;2022-10-20T09:46:47;2.65;;;2.17;;
66585;SDS011;53444;45.822;16.092;2022-10-20T09:49:23;3.13;;;2.17;;
66585;SDS011;53444;45.822;16.092;2022-10-20T09:51:55;2.65;;;2.08;;
66585;SDS011;53444;45.822;16.092;2022-10-20T09:54:22;3.42;;;2.50;;
66585;SDS011;53444;45.822;16.092;2022-10-20T09:56:50;4.13;;;2.00;;
66585;SDS011;53444;45.822;16.092;2022-10-20T09:59:18;3.55;;;2.00;;
66585;SDS011;53444;45.822;16.092;2022-10-20T10:01:54;5.28;;;2.17;;
66585;SDS011;53444;45.822;16.092;2022-10-20T10:04:29;6.82;;;2.25;;
66585;SDS011;53444;45.822;16.092;2022-10-20T10:06:59;2.47;;;1.77;;
66585;SDS011;53444;45.822;16.092;2022-10-20T10:09:26;2.83;;;1.77;;
66585;SDS011;53444;45.822;16.092;2022-10-20T10:11:58;3.63;;;1.65;;
66585;SDS011;53444;45.822;16.092;2022-10-20T10:14:28;2.90;;;1.98;;
66585;SDS011;53444;45.822;16.092;2022-10-20T10:16:57;3.88;;;2.03;;
66585;SDS011;53444;45.822;16.092;2022-10-20T10:19:25;3.33;;;2.17;;
66585;SDS011;53444;45.822;16.092;2022-10-20T10:21:54;2.70;;;2.17;;
66585;SDS011;53444;45.822;16.092;2022-10-20T10:24:27;3.38;;;2.40;;
66585;SDS011;53444;45.822;16.092;2022-10-20T10:27:02;3.58;;;2.00;;
66585;SDS011;53444;45.822;16.092;2022-10-20T10:29:30;3.45;;;1.92;;
66585;SDS011;53444;45.822;16.092;2022-10-20T10:32:00;3.05;;;2.10;;
66585;SDS011;53444;45.822;16.092;2022-10-20T10:34:35;3.30;;;2.17;;
66585;SDS011;53444;45.822;16.092;2022-10-20T10:37:08;2.83;;;1.80;;
66585;SDS011;53444;45.822;16.092;2022-10-20T10:39:39;3.80;;;2.03;;
66585;SDS011;53444;45.822;16.092;2022-10-20T10:42:11;4.03;;;2.00;;
66585;SDS011;53444;45.822;16.092;2022-10-20T10:44:49;4.10;;;2.03;;
66585;SDS011;53444;45.822;16.092;2022-10-20T10:47:27;2.93;;;2.10;;
66585;SDS011;53444;45.822;16.092;2022-10-20T10:50:18;2.42;;;2.00;;
66585;SDS011;53444;45.822;16.092;2022-10-20T10:52:53;8.25;;;2.25;;
66585;SDS011;53444;45.822;16.092;2022-10-20T10:55:32;3.22;;;2.28;;
66585;SDS011;53444;45.822;16.092;2022-10-20T10:58:04;3.63;;;2.50;;
66585;SDS011;53444;45.822;16.092;2022-10-20T11:00:40;6.50;;;2.60;;
66585;SDS011;53444;45.822;16.092;2022-10-20T11:03:18;5.93;;;2.50;;
66585;SDS011;53444;45.822;16.092;2022-10-20T11:06:02;6.82;;;2.85;;
66585;SDS011;53444;45.822;16.092;2022-10-20T11:08:45;5.03;;;2.28;;
66585;SDS011;53444;45.822;16.092;2022-10-20T11:11:26;3.95;;;2.20;;
66585;SDS011;53444;45.822;16.092;2022-10-20T11:14:07;4.07;;;2.47;;
66585;SDS011;53444;45.822;16.092;2022-10-20T11:16:41;4.75;;;1.92;;
66585;SDS011;53444;45.822;16.092;2022-10-20T11:22:12;4.25;;;2.28;;
66585;SDS011;53444;45.822;16.092;2022-10-20T11:24:50;5.65;;;2.78;;
66585;SDS011;53444;45.822;16.092;2022-10-20T11:27:26;3.40;;;2.40;;
66585;SDS011;53444;45.822;16.092;2022-10-20T11:29:56;3.33;;;2.70;;
66585;SDS011;53444;45.822;16.092;2022-10-20T11:32:30;4.35;;;2.58;;
66585;SDS011;53444;45.822;16.092;2022-10-20T11:35:04;4.07;;;2.90;;
66585;SDS011;53444;45.822;16.092;2022-10-20T11:37:40;4.45;;;2.65;;
66585;SDS011;53444;45.822;16.092;2022-10-20T11:40:15;5.20;;;2.70;;
66585;SDS011;53444;45.822;16.092;2022-10-20T11:42:51;5.85;;;3.17;;
66585;SDS011;53444;45.822;16.092;2022-10-20T11:45:31;4.80;;;3.17;;
66585;SDS011;53444;45.822;16.092;2022-10-20T11:48:07;3.47;;;2.75;;
66585;SDS011;53444;45.822;16.092;2022-10-20T11:50:39;3.97;;;2.97;;
66585;SDS011;53444;45.822;16.092;2022-10-20T11:53:18;5.30;;;3.00;;
66585;SDS011;53444;45.822;16.092;2022-10-20T11:56:06;5.43;;;3.22;;
66585;SDS011;53444;45.822;16.092;2022-10-20T12:01:42;7.72;;;3.60;;
66585;SDS011;53444;45.822;16.092;2022-10-20T12:07:28;5.17;;;3.10;;
66585;SDS011;53444;45.822;16.092;2022-10-20T12:10:12;5.68;;;3.42;;
66585;SDS011;53444;45.822;16.092;2022-10-20T12:12:52;4.85;;;3.17;;
66585;SDS011;53444;45.822;16.092;2022-10-20T12:15:26;4.47;;;3.03;;
66585;SDS011;53444;45.822;16.092;2022-10-20T12:17:56;5.95;;;2.90;;
66585;SDS011;53444;45.822;16.092;2022-10-20T12:23:51;6.22;;;3.40;;
66585;SDS011;53444;45.822;16.092;2022-10-20T12:26:39;4.32;;;3.47;;
66585;SDS011;53444;45.822;16.092;2022-10-20T12:32:33;5.95;;;3.15;;
66585;SDS011;53444;45.822;16.092;2022-10-20T12:38:18;6.90;;;3.75;;
66585;SDS011;53444;45.822;16.092;2022-10-20T12:40:50;6.00;;;3.10;;
66585;SDS011;53444;45.822;16.092;2022-10-20T12:46:16;4.75;;;3.20;;
66585;SDS011;53444;45.822;16.092;2022-10-20T12:48:46;3.57;;;2.80;;
66585;SDS011;53444;45.822;16.092;2022-10-20T12:51:24;4.30;;;3.30;;
66585;SDS011;53444;45.822;16.092;2022-10-20T12:54:01;4.68;;;3.13;;
66585;SDS011;53444;45.822;16.092;2022-10-20T12:56:32;4.38;;;3.10;;
66585;SDS011;53444;45.822;16.092;2022-10-20T12:59:07;4.70;;;2.92;;
66585;SDS011;53444;45.822;16.092;2022-10-20T13:04:53;10.98;;;3.33;;
66585;SDS011;53444;45.822;16.092;2022-10-20T13:10:30;5.05;;;3.05;;
66585;SDS011;53444;45.822;16.092;2022-10-20T13:16:14;6.57;;;3.50;;
66585;SDS011;53444;45.822;16.092;2022-10-20T13:18:45;3.88;;;3.22;;
66585;SDS011;53444;45.822;16.092;2022-10-20T13:21:19;7.88;;;4.40;;
66585;SDS011;53444;45.822;16.092;2022-10-20T13:23:54;6.28;;;3.53;;
66585;SDS011;53444;45.822;16.092;2022-10-20T13:26:37;4.63;;;3.20;;
66585;SDS011;53444;45.822;16.092;2022-10-20T13:29:13;4.20;;;2.60;;
66585;SDS011;53444;45.822;16.092;2022-10-20T13:31:45;4.35;;;3.30;;
66585;SDS011;53444;45.822;16.092;2022-10-20T13:34:18;5.65;;;3.88;;
66585;SDS011;53444;45.822;16.092;2022-10-20T13:36:53;5.13;;;3.13;;
66585;SDS011;53444;45.822;16.092;2022-10-20T13:39:30;5.35;;;3.60;;
66585;SDS011;53444;45.822;16.092;2022-10-20T13:42:08;5.50;;;3.83;;
66585;SDS011;53444;45.822;16.092;2022-10-20T13:44:46;7.65;;;3.53;;
66585;SDS011;53444;45.822;16.092;2022-10-20T13:50:16;7.80;;;5.22;;
66585;SDS011;53444;45.822;16.092;2022-10-20T13:52:47;5.68;;;4.40;;
66585;SDS011;53444;45.822;16.092;2022-10-20T13:55:18;5.53;;;3.10;;
66585;SDS011;53444;45.822;16.092;2022-10-20T13:57:51;4.85;;;3.40;;
66585;SDS011;53444;45.822;16.092;2022-10-20T14:00:21;4.82;;;3.92;;
66585;SDS011;53444;45.822;16.092;2022-10-20T14:02:51;7.28;;;4.53;;
66585;SDS011;53444;45.822;16.092;2022-10-20T14:05:28;5.50;;;3.60;;
66585;SDS011;53444;45.822;16.092;2022-10-20T14:08:01;5.00;;;3.63;;
66585;SDS011;53444;45.822;16.092;2022-10-20T14:10:35;16.15;;;3.95;;
66585;SDS011;53444;45.822;16.092;2022-10-20T14:13:06;6.03;;;3.45;;
66585;SDS011;53444;45.822;16.092;2022-10-20T14:15:34;12.93;;;4.25;;
66585;SDS011;53444;45.822;16.092;2022-10-20T14:18:03;8.65;;;3.90;;
66585;SDS011;53444;45.822;16.092;2022-10-20T14:20:31;4.17;;;3.50;;
66585;SDS011;53444;45.822;16.092;2022-10-20T14:23:02;5.47;;;3.83;;
66585;SDS011;53444;45.822;16.092;2022-10-20T14:25:29;6.90;;;3.85;;
66585;SDS011;53444;45.822;16.092;2022-10-20T14:27:58;5.63;;;3.95;;
66585;SDS011;53444;45.822;16.092;2022-10-20T14:30:26;5.45;;;3.97;;
66585;SDS011;53444;45.822;16.092;2022-10-20T14:32:53;6.03;;;3.80;;
66585;SDS011;53444;45.822;16.092;2022-10-20T14:35:22;6.50;;;4.00;;
66585;SDS011;53444;45.822;16.092;2022-10-20T14:38:05;5.97;;;3.85;;
66585;SDS011;53444;45.822;16.092;2022-10-20T14:40:40;5.07;;;3.88;;
66585;SDS011;53444;45.822;16.092;2022-10-20T14:43:15;4.93;;;4.00;;
66585;SDS011;53444;45.822;16.092;2022-10-20T14:45:50;4.27;;;3.83;;
66585;SDS011;53444;45.822;16.092;2022-10-20T14:48:18;4.75;;;3.60;;
66585;SDS011;53444;45.822;16.092;2022-10-20T14:50:45;5.53;;;4.10;;
66585;SDS011;53444;45.822;16.092;2022-10-20T14:53:16;5.07;;;3.67;;
66585;SDS011;53444;45.822;16.092;2022-10-20T14:55:44;4.85;;;3.65;;
66585;SDS011;53444;45.822;16.092;2022-10-20T14:58:31;5.27;;;3.80;;
66585;SDS011;53444;45.822;16.092;2022-10-20T15:04:01;5.13;;;3.45;;
66585;SDS011;53444;45.822;16.092;2022-10-20T15:06:32;6.40;;;3.92;;
66585;SDS011;53444;45.822;16.092;2022-10-20T15:09:00;5.75;;;3.53;;
66585;SDS011;53444;45.822;16.092;2022-10-20T15:11:27;6.13;;;3.50;;
66585;SDS011;53444;45.822;16.092;2022-10-20T15:13:58;8.40;;;3.53;;
66585;SDS011;53444;45.822;16.092;2022-10-20T15:16:32;6.13;;;3.85;;
66585;SDS011;53444;45.822;16.092;2022-10-20T15:19:10;6.25;;;3.55;;
66585;SDS011;53444;45.822;16.092;2022-10-20T15:22:10;5.45;;;3.92;;
66585;SDS011;53444;45.822;16.092;2022-10-20T15:24:38;5.87;;;3.57;;
66585;SDS011;53444;45.822;16.092;2022-10-20T15:27:05;4.57;;;3.53;;
66585;SDS011;53444;45.822;16.092;2022-10-20T15:29:39;6.15;;;4.00;;